createdAt,value
2019-04-11T00:02:00.473Z,9.30
2019-04-11T00:04:28.258Z,8.03
2019-04-11T00:06:58.112Z,9.90
2019-04-11T00:09:28.456Z,9.50
2019-04-11T00:12:02.127Z,8.80
2019-04-11T00:14:31.727Z,9.17
2019-04-11T00:17:01.629Z,8.40
2019-04-11T00:19:33.657Z,8.70
2019-04-11T00:22:05.575Z,9.37
2019-04-11T00:24:34.834Z,7.90
2019-04-11T00:27:08.692Z,7.00
2019-04-11T00:29:38.651Z,8.47
2019-04-11T00:32:11.984Z,7.77
2019-04-11T00:34:39.353Z,9.20
2019-04-11T00:37:12.746Z,6.67
2019-04-11T00:39:41.984Z,8.97
2019-04-11T00:42:13.151Z,8.27
2019-04-11T00:44:42.965Z,8.43
2019-04-11T00:47:13.077Z,7.97
2019-04-11T00:49:42.947Z,7.10
2019-04-11T00:52:12.272Z,8.30
2019-04-11T00:54:42.704Z,7.57
2019-04-11T00:57:12.787Z,7.43
2019-04-11T00:59:42.621Z,8.10
2019-04-11T01:02:16.206Z,7.60
2019-04-11T01:04:54.039Z,7.87
2019-04-11T01:07:27.519Z,7.43
2019-04-11T01:09:59.679Z,8.20
2019-04-11T01:12:28.991Z,8.10
2019-04-11T01:15:00.742Z,7.33
2019-04-11T01:17:29.824Z,8.40
2019-04-11T01:19:59.409Z,8.03
2019-04-11T01:22:38.363Z,7.50
2019-04-11T01:25:08.292Z,6.83
2019-04-11T01:27:41.177Z,7.33
2019-04-11T01:30:14.162Z,8.20
2019-04-11T01:32:43.326Z,6.90
2019-04-11T01:35:13.086Z,7.77
2019-04-11T01:37:46.734Z,7.10
2019-04-11T01:40:17.923Z,6.90
2019-04-11T01:42:49.949Z,7.90
2019-04-11T01:45:21.878Z,7.50
2019-04-11T01:48:17.483Z,7.17
2019-04-11T01:50:47.291Z,7.00
2019-04-11T01:53:19.279Z,6.63
2019-04-11T01:55:50.500Z,6.97
2019-04-11T01:58:26.702Z,7.33
2019-04-11T02:01:10.525Z,6.83
2019-04-11T02:03:49.847Z,7.30
2019-04-11T02:06:23.570Z,7.30
2019-04-11T02:09:02.078Z,7.50
2019-04-11T02:11:31.832Z,6.13
2019-04-11T02:14:12.077Z,7.53
2019-04-11T02:16:36.958Z,9.07
2019-04-11T02:19:10.136Z,8.00
2019-04-11T02:21:40.302Z,8.13
2019-04-11T02:24:25.806Z,8.80
2019-04-11T02:27:19.079Z,7.70
2019-04-11T02:29:50.945Z,6.90
2019-04-11T02:32:24.873Z,6.93
2019-04-11T02:34:57.067Z,7.50
2019-04-11T02:37:33.765Z,7.60
2019-04-11T02:40:03.387Z,7.90
2019-04-11T02:42:35.125Z,7.13
2019-04-11T02:45:19.801Z,6.37
2019-04-11T02:47:43.957Z,7.10
2019-04-11T02:50:18.612Z,7.00
2019-04-11T02:52:49.714Z,7.10
2019-04-11T02:55:21.215Z,8.70
2019-04-11T02:57:51.922Z,8.83
2019-04-11T03:00:24.997Z,8.33
2019-04-11T03:02:59.418Z,7.20
2019-04-11T03:05:31.024Z,7.20
2019-04-11T03:08:02.513Z,7.57
2019-04-11T03:10:45.381Z,6.60
2019-04-11T03:13:21.100Z,7.50
2019-04-11T03:16:07.342Z,8.13
2019-04-11T03:18:40.908Z,7.47
2019-04-11T03:20:57.822Z,7.57
2019-04-11T03:23:28.068Z,7.50
2019-04-11T03:26:03.210Z,6.33
2019-04-11T03:28:35.820Z,7.60
2019-04-11T03:31:33.265Z,7.00
2019-04-11T03:39:05.655Z,8.10
2019-04-11T03:41:34.797Z,7.50
2019-04-11T03:44:05.800Z,7.13
2019-04-11T03:46:45.049Z,6.90
2019-04-11T03:49:12.695Z,6.67
2019-04-11T03:51:37.057Z,5.70
2019-04-11T03:54:09.635Z,6.97
2019-04-11T03:56:41.372Z,7.40
2019-04-11T03:59:22.902Z,8.70
2019-04-11T04:01:48.753Z,7.67
2019-04-11T04:04:21.359Z,7.00
2019-04-11T04:06:55.328Z,8.87
2019-04-11T04:09:29.534Z,7.50
2019-04-11T04:12:00.368Z,7.77
2019-04-11T04:14:49.543Z,7.50
2019-04-11T04:17:41.272Z,8.40
2019-04-11T04:20:24.642Z,6.97
2019-04-11T04:23:03.182Z,7.67
2019-04-11T04:25:34.566Z,6.80
2019-04-11T04:28:05.385Z,7.33
2019-04-11T04:30:38.903Z,8.10
2019-04-11T04:33:10.210Z,6.33
2019-04-11T04:35:44.775Z,7.70
2019-04-11T04:38:21.104Z,8.77
2019-04-11T04:41:07.371Z,7.00
2019-04-11T04:43:22.965Z,8.27
2019-04-11T04:46:08.758Z,8.77
2019-04-11T04:48:27.164Z,7.50
2019-04-11T04:51:04.081Z,8.33
2019-04-11T04:53:33.173Z,6.50
2019-04-11T04:56:00.501Z,6.50
2019-04-11T04:58:31.689Z,7.90
2019-04-11T05:01:03.702Z,7.50
2019-04-11T05:03:34.333Z,7.80
2019-04-11T05:06:04.190Z,8.10
2019-04-11T05:08:40.976Z,6.90
2019-04-11T05:11:11.360Z,8.07
2019-04-11T05:13:52.024Z,7.30
2019-04-11T05:16:24.845Z,7.40
2019-04-11T05:18:54.721Z,7.80
2019-04-11T05:21:25.442Z,8.43
2019-04-11T05:24:18.740Z,8.10
2019-04-11T05:26:52.270Z,8.97
2019-04-11T05:29:21.663Z,7.67
2019-04-11T05:31:51.391Z,7.50
2019-04-11T05:34:20.665Z,6.90
2019-04-11T05:36:50.803Z,8.27
2019-04-11T05:39:21.825Z,8.10
2019-04-11T05:41:54.567Z,7.37
2019-04-11T05:44:24.986Z,6.80
2019-04-11T05:47:01.906Z,7.23
2019-04-11T05:49:37.273Z,7.30
2019-04-11T05:52:08.028Z,7.87
2019-04-11T05:54:52.553Z,7.33
2019-04-11T05:57:35.422Z,7.70
2019-04-11T06:00:10.326Z,8.67
2019-04-11T06:02:41.918Z,8.93
2019-04-11T06:05:29.172Z,9.20
2019-04-11T06:07:58.218Z,8.10
2019-04-11T06:10:43.522Z,8.73
2019-04-11T06:13:16.637Z,9.00
2019-04-11T06:15:51.826Z,9.40
2019-04-11T06:18:37.808Z,8.40
2019-04-11T06:21:19.957Z,8.10
2019-04-11T06:24:08.036Z,7.13
2019-04-11T06:27:13.716Z,7.30
2019-04-11T06:29:55.496Z,8.60
2019-04-11T06:32:45.854Z,9.37
2019-04-11T06:35:26.280Z,8.20
2019-04-11T06:38:16.426Z,8.43
2019-04-11T06:40:59.874Z,8.60
2019-04-11T06:43:42.632Z,8.37
2019-04-11T06:46:29.507Z,8.90
2019-04-11T06:49:18.322Z,7.70
2019-04-11T06:51:52.586Z,7.83
2019-04-11T06:54:37.553Z,8.90
2019-04-11T06:57:14.054Z,7.53
2019-04-11T06:59:45.809Z,9.50
2019-04-11T07:02:19.748Z,9.07
2019-04-11T07:04:56.339Z,9.47
2019-04-11T07:07:31.020Z,7.90
2019-04-11T07:10:06.291Z,9.60
2019-04-11T07:12:49.486Z,8.60
2019-04-11T07:15:46.439Z,8.77
2019-04-11T07:18:35.731Z,9.60
2019-04-11T07:21:10.598Z,9.87
2019-04-11T07:24:03.238Z,10.03
2019-04-11T07:26:54.470Z,9.40
2019-04-11T07:29:33.744Z,9.70
2019-04-11T07:32:17.955Z,7.97
2019-04-11T07:35:13.012Z,9.63
2019-04-11T07:37:51.035Z,9.20
2019-04-11T07:40:39.416Z,10.30
2019-04-11T07:43:14.914Z,10.00
2019-04-11T07:46:10.797Z,9.60
2019-04-11T07:48:42.501Z,10.07
2019-04-11T07:51:25.336Z,10.80
2019-04-11T07:53:56.758Z,9.50
2019-04-11T07:56:40.403Z,10.10
2019-04-11T07:59:27.169Z,9.80
2019-04-11T08:02:16.028Z,10.70
2019-04-11T08:05:04.504Z,10.93
2019-04-11T08:07:57.448Z,9.17
2019-04-11T08:10:33.109Z,9.57
2019-04-11T08:13:05.954Z,10.73
2019-04-11T08:16:12.616Z,11.00
2019-04-11T08:18:57.172Z,10.20
2019-04-11T08:21:48.895Z,10.00
2019-04-11T08:24:29.923Z,10.90
2019-04-11T08:27:19.987Z,10.10
2019-04-11T08:29:51.983Z,11.23
2019-04-11T08:32:41.884Z,10.63
2019-04-11T08:35:28.369Z,11.57
2019-04-11T08:38:05.788Z,9.60
2019-04-11T08:40:40.290Z,12.37
2019-04-11T08:43:15.098Z,11.77
2019-04-11T08:45:51.626Z,10.77
2019-04-11T08:48:22.487Z,11.37
2019-04-11T08:50:55.742Z,12.00
2019-04-11T08:53:42.842Z,12.20
2019-04-11T08:56:16.430Z,10.60
2019-04-11T08:59:30.894Z,11.50
2019-04-11T09:02:04.559Z,10.73
2019-04-11T09:05:04.895Z,10.50
2019-04-11T09:07:45.744Z,10.90
2019-04-11T09:10:44.274Z,12.10
2019-04-11T09:13:40.106Z,11.90
2019-04-11T09:16:41.581Z,11.27
2019-04-11T09:19:18.834Z,10.87
2019-04-11T09:22:10.970Z,11.13
2019-04-11T09:24:58.928Z,11.80
2019-04-11T09:27:57.654Z,11.60
2019-04-11T09:30:45.295Z,12.43
2019-04-11T09:33:33.387Z,12.57
2019-04-11T09:36:11.353Z,11.87
2019-04-11T09:38:42.291Z,12.90
2019-04-11T09:41:32.247Z,12.97
2019-04-11T09:44:04.805Z,12.70
2019-04-11T09:47:09.563Z,11.50
2019-04-11T09:49:53.837Z,12.40
2019-04-11T09:52:42.019Z,12.47
2019-04-11T09:55:21.332Z,12.30
2019-04-11T09:57:58.626Z,12.00
2019-04-11T10:01:03.786Z,13.00
2019-04-11T10:03:34.538Z,11.97
2019-04-11T10:06:25.886Z,12.50
2019-04-11T10:08:59.792Z,15.37
2019-04-11T10:11:55.311Z,13.57
2019-04-11T10:14:27.177Z,12.77
2019-04-11T10:17:37.997Z,12.27
2019-04-11T10:20:15.942Z,13.57
2019-04-11T10:23:25.056Z,12.33
2019-04-11T10:26:01.357Z,13.40
2019-04-11T10:28:58.474Z,13.20
2019-04-11T10:31:31.014Z,14.00
2019-04-11T10:34:22.092Z,14.87
2019-04-11T10:37:03.662Z,13.90
2019-04-11T10:39:54.902Z,14.77
2019-04-11T10:42:29.102Z,13.97
2019-04-11T10:45:18.453Z,14.17
2019-04-11T10:47:49.370Z,13.87
2019-04-11T10:50:40.509Z,15.17
2019-04-11T10:53:11.009Z,15.40
2019-04-11T10:56:08.586Z,12.73
2019-04-11T10:58:47.056Z,15.10
2019-04-11T11:01:42.372Z,15.68
2019-04-11T11:04:17.883Z,14.60
2019-04-11T11:06:49.741Z,15.77
2019-04-11T11:09:38.975Z,15.20
2019-04-11T11:12:27.369Z,14.23
2019-04-11T11:15:07.354Z,13.40
2019-04-11T11:18:32.147Z,13.60
2019-04-11T11:20:48.345Z,13.33
2019-04-11T11:23:20.467Z,14.83
2019-04-11T11:26:22.727Z,12.90
2019-04-11T11:29:13.653Z,15.03
2019-04-11T11:31:50.301Z,13.27
2019-04-11T11:34:38.946Z,13.73
2019-04-11T11:37:26.904Z,14.30
2019-04-11T11:40:16.746Z,14.57
2019-04-11T11:43:12.684Z,14.93
2019-04-11T11:46:04.032Z,12.93
2019-04-11T11:48:39.694Z,13.30
2019-04-11T11:51:31.324Z,14.53
2019-04-11T11:54:15.609Z,14.97
2019-04-11T11:56:48.942Z,15.20
2019-04-11T11:59:37.054Z,12.77
2019-04-11T12:02:15.688Z,14.10
2019-04-11T12:05:00.409Z,12.83
2019-04-11T12:07:37.412Z,14.13
2019-04-11T12:10:43.897Z,13.50
2019-04-11T12:13:45.509Z,14.23
2019-04-11T12:16:26.003Z,14.90
2019-04-11T12:19:10.895Z,14.87
2019-04-11T12:21:45.840Z,14.20
2019-04-11T12:24:32.367Z,14.53
2019-04-11T12:27:20.533Z,14.70
2019-04-11T12:30:11.011Z,14.97
2019-04-11T12:32:57.070Z,14.00
2019-04-11T12:35:40.110Z,14.67
2019-04-11T12:38:15.592Z,14.50
2019-04-11T12:41:26.585Z,14.20
2019-04-11T12:44:17.216Z,14.03
2019-04-11T12:47:07.557Z,15.00
2019-04-11T12:50:03.271Z,15.20
2019-04-11T12:52:55.075Z,14.10
2019-04-11T12:55:32.037Z,15.50
2019-04-11T12:58:19.605Z,14.30
2019-04-11T13:01:10.592Z,14.23
2019-04-11T13:03:58.680Z,15.67
2019-04-11T13:06:40.931Z,13.30
2019-04-11T13:09:18.198Z,15.20
2019-04-11T13:11:49.948Z,12.40
2019-04-11T13:14:28.271Z,13.80
2019-04-11T13:16:58.791Z,14.97
2019-04-11T13:19:48.542Z,13.90
2019-04-11T13:22:21.146Z,14.50
2019-04-11T13:25:12.747Z,13.00
2019-04-11T13:27:50.704Z,13.67
2019-04-11T13:30:39.792Z,14.43
2019-04-11T13:33:17.547Z,13.70
2019-04-11T13:36:14.566Z,14.10
2019-04-11T13:38:51.635Z,13.37
2019-04-11T13:41:33.570Z,12.07
2019-04-11T13:44:09.712Z,14.27
2019-04-11T13:46:57.723Z,14.57
2019-04-11T13:49:46.269Z,13.03
2019-04-11T13:52:34.821Z,13.17
2019-04-11T13:55:23.286Z,14.00
2019-04-11T13:58:12.450Z,12.37
2019-04-11T14:00:53.115Z,12.30
2019-04-11T14:03:39.666Z,14.50
2019-04-11T14:06:31.511Z,13.30
2019-04-11T14:09:23.061Z,13.23
2019-04-11T14:12:06.751Z,11.63
2019-04-11T14:14:40.657Z,13.20
2019-04-11T14:17:18.524Z,11.50
2019-04-11T14:20:11.608Z,12.00
2019-04-11T14:23:14.109Z,11.17
2019-04-11T14:26:02.152Z,12.10
2019-04-11T14:28:44.833Z,13.50
2019-04-11T14:31:39.287Z,10.17
2019-04-11T14:34:17.174Z,13.30
2019-04-11T14:37:01.611Z,12.90
2019-04-11T14:39:34.006Z,12.33
2019-04-11T14:42:37.140Z,12.37
2019-04-11T14:46:04.623Z,12.37
2019-04-11T14:48:47.091Z,12.97
2019-04-11T14:51:53.850Z,12.73
2019-04-11T14:54:30.334Z,11.70
2019-04-11T14:57:13.427Z,13.37
2019-04-11T14:59:47.373Z,11.73
2019-04-11T15:02:35.711Z,12.73
2019-04-11T15:05:25.976Z,13.43
2019-04-11T15:07:55.729Z,12.00
2019-04-11T15:11:02.200Z,13.80
2019-04-11T15:13:33.184Z,13.17
2019-04-11T15:16:13.916Z,12.73
2019-04-11T15:18:51.622Z,11.80
2019-04-11T15:21:40.692Z,12.97
2019-04-11T15:24:10.391Z,13.30
2019-04-11T15:26:51.423Z,12.10
2019-04-11T15:29:25.224Z,12.70
2019-04-11T15:32:32.980Z,12.27
2019-04-11T15:35:10.466Z,13.20
2019-04-11T15:38:09.004Z,11.20
2019-04-11T15:40:44.690Z,13.03
2019-04-11T15:43:43.252Z,13.20
2019-04-11T15:46:37.759Z,14.10
2019-04-11T15:49:30.285Z,12.30
2019-04-11T15:52:06.280Z,12.93
2019-04-11T15:54:55.049Z,13.37
2019-04-11T15:57:32.588Z,13.13
2019-04-11T16:00:30.314Z,12.40
2019-04-11T16:03:07.521Z,14.03
2019-04-11T16:06:02.858Z,13.20
2019-04-11T16:08:43.767Z,11.50
2019-04-11T16:11:53.632Z,12.87
2019-04-11T16:14:34.837Z,12.70
2019-04-11T16:17:36.525Z,13.03
2019-04-11T16:20:17.768Z,13.63
2019-04-11T16:23:09.983Z,12.87
2019-04-11T16:25:49.689Z,12.83
2019-04-11T16:28:39.586Z,13.43
2019-04-11T16:31:11.139Z,13.47
2019-04-11T16:34:09.180Z,13.47
2019-04-11T16:37:08.031Z,14.33
2019-04-11T16:39:39.361Z,11.93
2019-04-11T16:42:13.698Z,12.40
2019-04-11T16:45:02.123Z,11.03
2019-04-11T16:47:50.764Z,12.47
2019-04-11T16:50:21.707Z,12.63
2019-04-11T16:52:51.928Z,12.67
2019-04-11T16:55:22.908Z,11.90
2019-04-11T16:57:57.155Z,13.53
2019-04-11T17:00:27.947Z,12.23
2019-04-11T17:02:58.678Z,13.17
2019-04-11T17:05:27.940Z,12.60
2019-04-11T17:08:10.272Z,11.63
2019-04-11T17:10:59.212Z,11.20
2019-04-11T17:13:40.696Z,11.63
2019-04-11T17:16:23.096Z,12.57
2019-04-11T17:18:55.361Z,11.70
2019-04-11T17:21:27.704Z,12.40
2019-04-11T17:24:00.843Z,12.90
2019-04-11T17:26:33.076Z,12.60
2019-04-11T17:29:06.290Z,12.23
2019-04-11T17:31:37.327Z,11.70
2019-04-11T17:34:11.450Z,11.47
2019-04-11T17:36:47.159Z,11.77
2019-04-11T17:39:23.513Z,14.77
2019-04-11T17:41:57.204Z,12.80
2019-04-11T17:44:30.099Z,12.80
2019-04-11T17:47:03.126Z,11.97
2019-04-11T17:49:41.596Z,12.20
2019-04-11T17:52:14.972Z,11.53
2019-04-11T17:54:54.743Z,12.60
2019-04-11T17:57:27.787Z,11.63
2019-04-11T18:00:00.922Z,12.17
2019-04-11T18:02:34.396Z,11.30
2019-04-11T18:05:07.152Z,12.20
2019-04-11T18:07:41.418Z,10.77
2019-04-11T18:10:18.269Z,12.70
2019-04-11T18:12:55.768Z,11.43
2019-04-11T18:15:28.844Z,11.90
2019-04-11T18:18:07.262Z,10.93
2019-04-11T18:20:40.035Z,10.93
2019-04-11T18:23:12.884Z,12.70
2019-04-11T18:25:45.461Z,11.47
2019-04-11T18:28:17.448Z,11.30
2019-04-11T18:30:53.819Z,11.70
2019-04-11T18:33:23.247Z,11.73
2019-04-11T18:35:56.947Z,12.17
2019-04-11T18:38:32.010Z,11.10
2019-04-11T18:41:06.471Z,10.37
2019-04-11T18:43:37.683Z,11.80
2019-04-11T18:46:14.704Z,11.93
2019-04-11T18:48:45.551Z,11.97
2019-04-11T18:51:15.460Z,11.23
2019-04-11T18:53:50.619Z,11.20
2019-04-11T18:56:19.922Z,11.53
2019-04-11T18:58:52.084Z,11.47
2019-04-11T19:01:21.331Z,11.40
2019-04-11T19:03:53.444Z,10.53
2019-04-11T19:06:28.373Z,10.63
2019-04-11T19:09:00.763Z,9.70
2019-04-11T19:11:29.855Z,9.77
2019-04-11T19:13:59.142Z,10.40
2019-04-11T19:16:28.237Z,10.50
2019-04-11T19:19:01.671Z,10.03
2019-04-11T19:21:33.071Z,10.97
2019-04-11T19:24:02.128Z,10.77
2019-04-11T19:26:31.298Z,10.23
2019-04-11T19:29:00.467Z,10.90
2019-04-11T19:31:29.541Z,9.57
2019-04-11T19:33:59.782Z,10.17
2019-04-11T19:36:30.402Z,10.33
2019-04-11T19:39:01.132Z,10.70
2019-04-11T19:41:30.580Z,10.43
2019-04-11T19:43:59.881Z,9.73
2019-04-11T19:46:28.954Z,10.33
2019-04-11T19:48:59.445Z,9.80
2019-04-11T19:51:29.476Z,9.83
2019-04-11T19:54:03.019Z,9.80
2019-04-11T19:56:43.896Z,10.87
2019-04-11T19:59:14.272Z,10.87
2019-04-11T20:01:43.394Z,10.23
2019-04-11T20:04:13.542Z,10.37
2019-04-11T20:06:43.698Z,10.83
2019-04-11T20:09:14.568Z,11.40
2019-04-11T20:11:44.940Z,10.13
2019-04-11T20:14:14.145Z,9.67
2019-04-11T20:16:49.289Z,9.70
2019-04-11T20:19:18.884Z,10.23
2019-04-11T20:21:49.546Z,8.30
2019-04-11T20:24:18.645Z,9.43
2019-04-11T20:26:49.677Z,8.30
2019-04-11T20:29:18.974Z,9.10
2019-04-11T20:31:50.592Z,9.80
2019-04-11T20:34:38.017Z,10.07
2019-04-11T20:37:12.642Z,10.27
2019-04-11T20:39:47.265Z,10.27
2019-04-11T20:42:17.273Z,9.30
2019-04-11T20:44:50.652Z,11.27
2019-04-11T20:47:22.205Z,9.50
2019-04-11T20:49:51.324Z,9.43
2019-04-11T20:52:20.421Z,8.40
2019-04-11T20:54:49.464Z,8.83
2019-04-11T20:57:25.485Z,9.03
2019-04-11T20:59:49.501Z,8.63
2019-04-11T21:02:28.182Z,10.00
2019-04-11T21:05:01.211Z,9.30
2019-04-11T21:07:31.970Z,8.40
2019-04-11T21:10:03.977Z,9.93
2019-04-11T21:12:32.593Z,9.77
2019-04-11T21:15:01.847Z,8.90
2019-04-11T21:17:31.035Z,8.17
2019-04-11T21:20:00.181Z,8.20
2019-04-11T21:22:29.324Z,9.00
2019-04-11T21:25:01.251Z,9.87
2019-04-11T21:27:30.394Z,7.80
2019-04-11T21:30:00.827Z,9.43
2019-04-11T21:32:31.935Z,9.30
2019-04-11T21:35:02.325Z,9.37
2019-04-11T21:37:32.218Z,8.73
2019-04-11T21:40:03.432Z,8.77
2019-04-11T21:42:36.183Z,9.23
2019-04-11T21:45:05.969Z,9.57
2019-04-11T21:47:38.188Z,8.90
2019-04-11T21:50:10.595Z,8.90
2019-04-11T21:52:43.338Z,9.07
2019-04-11T21:55:15.190Z,10.03
2019-04-11T21:57:48.319Z,8.03
2019-04-11T22:00:23.953Z,8.57
2019-04-11T22:03:06.654Z,9.00
2019-04-11T22:05:41.452Z,8.50
2019-04-11T22:08:12.339Z,8.90
2019-04-11T22:10:41.416Z,9.97
2019-04-11T22:13:12.103Z,9.60
2019-04-11T22:15:43.123Z,7.77
2019-04-11T22:18:16.799Z,10.33
2019-04-11T22:20:47.518Z,9.27
2019-04-11T22:23:16.659Z,9.40
2019-04-11T22:25:46.028Z,9.07
2019-04-11T22:28:24.845Z,9.47
2019-04-11T22:30:56.247Z,9.97
2019-04-11T22:33:46.834Z,9.83
2019-04-11T22:36:15.941Z,8.77
2019-04-11T22:38:46.758Z,8.90
2019-04-11T22:41:19.837Z,9.93
2019-04-11T22:43:52.060Z,9.17
2019-04-11T22:46:21.227Z,9.67
2019-04-11T22:48:50.541Z,9.43
2019-04-11T22:51:23.410Z,10.73
2019-04-11T22:54:00.527Z,9.30
2019-04-11T22:56:26.420Z,9.40
2019-04-11T22:58:55.717Z,9.83
2019-04-11T23:01:27.629Z,9.90
2019-04-11T23:04:00.948Z,8.83
2019-04-11T23:06:34.277Z,9.30
2019-04-11T23:09:05.463Z,9.30
2019-04-11T23:11:34.508Z,9.93
2019-04-11T23:14:03.672Z,10.10
2019-04-11T23:16:38.929Z,10.70
2019-04-11T23:19:08.014Z,11.37
2019-04-11T23:21:37.092Z,9.93
2019-04-11T23:24:11.805Z,10.67
2019-04-11T23:26:43.089Z,10.60
2019-04-11T23:29:16.193Z,10.17
2019-04-11T23:31:50.613Z,9.23
2019-04-11T23:34:19.759Z,9.50
2019-04-11T23:36:55.328Z,10.13
2019-04-11T23:39:27.452Z,10.30
2019-04-11T23:41:56.575Z,9.93
2019-04-11T23:44:25.710Z,8.40
2019-04-11T23:46:56.361Z,8.70
2019-04-11T23:49:27.510Z,10.37
2019-04-11T23:52:03.440Z,9.43
2019-04-11T23:54:32.900Z,10.10
2019-04-11T23:57:02.343Z,12.20
2019-04-11T23:59:35.606Z,10.40
